sensor_id;sensor_type;location;lat;lon;timestamp;pressure;altitude;pressure_sealevel;temperature;humidity
73633;BME280;61927;50.080;14.418;2023-03-07T00:01:00;98191.91;;;3.39;65.63
73633;BME280;61927;50.080;14.418;2023-03-07T00:03:26;98186.00;;;3.36;65.81
73633;BME280;61927;50.080;14.418;2023-03-07T00:06:08;98184.53;;;3.30;65.82
73633;BME280;61927;50.080;14.418;2023-03-07T00:08:34;98185.22;;;3.34;65.85
73633;BME280;61927;50.080;14.418;2023-03-07T00:11:02;98188.69;;;3.34;65.99
73633;BME280;61927;50.080;14.418;2023-03-07T00:13:29;98189.72;;;3.32;65.89
73633;BME280;61927;50.080;14.418;2023-03-07T00:16:00;98187.84;;;3.34;65.88
73633;BME280;61927;50.080;14.418;2023-03-07T00:18:26;98191.25;;;3.36;66.07
73633;BME280;61927;50.080;14.418;2023-03-07T00:21:10;98185.22;;;3.34;66.23
73633;BME280;61927;50.080;14.418;2023-03-07T00:23:38;98179.38;;;3.29;66.33
73633;BME280;61927;50.080;14.418;2023-03-07T00:28:37;98174.22;;;3.27;66.53
73633;BME280;61927;50.080;14.418;2023-03-07T00:31:05;98168.91;;;3.29;66.53
73633;BME280;61927;50.080;14.418;2023-03-07T00:33:32;98166.13;;;3.32;66.71
73633;BME280;61927;50.080;14.418;2023-03-07T00:36:00;98167.88;;;3.31;66.39
73633;BME280;61927;50.080;14.418;2023-03-07T00:38:27;98159.25;;;3.29;66.08
73633;BME280;61927;50.080;14.418;2023-03-07T00:41:20;98149.88;;;3.25;66.16
73633;BME280;61927;50.080;14.418;2023-03-07T00:43:47;98153.50;;;3.22;66.26
73633;BME280;61927;50.080;14.418;2023-03-07T00:46:17;98149.09;;;3.23;66.48
73633;BME280;61927;50.080;14.418;2023-03-07T00:48:44;98155.03;;;3.27;66.31
73633;BME280;61927;50.080;14.418;2023-03-07T00:51:11;98144.69;;;3.23;66.57
73633;BME280;61927;50.080;14.418;2023-03-07T00:53:37;98139.69;;;3.19;66.40
73633;BME280;61927;50.080;14.418;2023-03-07T00:56:05;98137.94;;;3.19;66.30
73633;BME280;61927;50.080;14.418;2023-03-07T00:58:33;98133.84;;;3.14;66.61
73633;BME280;61927;50.080;14.418;2023-03-07T01:00:59;98132.94;;;3.15;66.75
73633;BME280;61927;50.080;14.418;2023-03-07T01:03:26;98127.75;;;3.13;66.44
73633;BME280;61927;50.080;14.418;2023-03-07T01:05:52;98128.69;;;3.12;66.87
73633;BME280;61927;50.080;14.418;2023-03-07T01:08:19;98119.06;;;3.13;66.97
73633;BME280;61927;50.080;14.418;2023-03-07T01:10:45;98118.66;;;3.20;66.06
73633;BME280;61927;50.080;14.418;2023-03-07T01:13:14;98111.72;;;3.19;65.77
73633;BME280;61927;50.080;14.418;2023-03-07T01:15:40;98117.13;;;3.16;65.89
73633;BME280;61927;50.080;14.418;2023-03-07T01:18:07;98110.63;;;3.23;66.12
73633;BME280;61927;50.080;14.418;2023-03-07T01:20:34;98109.44;;;3.29;65.75
73633;BME280;61927;50.080;14.418;2023-03-07T01:23:01;98109.19;;;3.34;65.68
73633;BME280;61927;50.080;14.418;2023-03-07T01:25:27;98102.00;;;3.37;65.34
73633;BME280;61927;50.080;14.418;2023-03-07T01:27:54;98103.47;;;3.43;65.33
73633;BME280;61927;50.080;14.418;2023-03-07T01:30:20;98095.84;;;3.38;65.06
73633;BME280;61927;50.080;14.418;2023-03-07T01:32:46;98088.91;;;3.37;65.35
73633;BME280;61927;50.080;14.418;2023-03-07T01:35:13;98090.34;;;3.43;64.48
73633;BME280;61927;50.080;14.418;2023-03-07T01:37:39;98090.34;;;3.43;64.48
73633;BME280;61927;50.080;14.418;2023-03-07T01:40:05;98084.25;;;3.42;64.67
73633;BME280;61927;50.080;14.418;2023-03-07T01:42:31;98091.88;;;3.47;64.67
73633;BME280;61927;50.080;14.418;2023-03-07T01:45:00;98089.75;;;3.53;64.69
73633;BME280;61927;50.080;14.418;2023-03-07T01:47:26;98095.50;;;3.60;64.72
73633;BME280;61927;50.080;14.418;2023-03-07T01:49:52;98085.09;;;3.59;64.40
73633;BME280;61927;50.080;14.418;2023-03-07T01:52:24;98082.41;;;3.60;64.01
73633;BME280;61927;50.080;14.418;2023-03-07T01:54:59;98083.59;;;3.54;64.27
73633;BME280;61927;50.080;14.418;2023-03-07T01:57:31;98075.72;;;3.54;64.03
73633;BME280;61927;50.080;14.418;2023-03-07T02:00:00;98072.16;;;3.55;63.80
73633;BME280;61927;50.080;14.418;2023-03-07T02:02:30;98069.53;;;3.55;63.78
73633;BME280;61927;50.080;14.418;2023-03-07T02:05:10;98061.75;;;3.54;64.07
73633;BME280;61927;50.080;14.418;2023-03-07T02:07:47;98063.69;;;3.50;64.19
73633;BME280;61927;50.080;14.418;2023-03-07T02:10:15;98058.63;;;3.47;64.16
73633;BME280;61927;50.080;14.418;2023-03-07T02:12:41;98062.84;;;3.50;64.24
73633;BME280;61927;50.080;14.418;2023-03-07T02:15:08;98060.31;;;3.48;64.46
73633;BME280;61927;50.080;14.418;2023-03-07T02:17:34;98059.47;;;3.48;64.27
73633;BME280;61927;50.080;14.418;2023-03-07T02:22:50;98053.63;;;3.59;64.12
73633;BME280;61927;50.080;14.418;2023-03-07T02:25:21;98054.31;;;3.62;64.04
73633;BME280;61927;50.080;14.418;2023-03-07T02:27:50;98054.03;;;3.67;63.63
73633;BME280;61927;50.080;14.418;2023-03-07T02:30:17;98044.41;;;3.67;63.33
73633;BME280;61927;50.080;14.418;2023-03-07T02:32:43;98047.09;;;3.66;63.68
73633;BME280;61927;50.080;14.418;2023-03-07T02:35:18;98048.97;;;3.64;63.38
73633;BME280;61927;50.080;14.418;2023-03-07T02:37:45;98043.81;;;3.62;63.88
73633;BME280;61927;50.080;14.418;2023-03-07T02:40:13;98039.16;;;3.67;63.04
73633;BME280;61927;50.080;14.418;2023-03-07T02:42:41;98045.41;;;3.65;63.19
73633;BME280;61927;50.080;14.418;2023-03-07T02:45:10;98041.88;;;3.66;63.58
73633;BME280;61927;50.080;14.418;2023-03-07T02:47:37;98035.50;;;3.70;63.34
73633;BME280;61927;50.080;14.418;2023-03-07T02:50:04;98033.81;;;3.69;63.58
73633;BME280;61927;50.080;14.418;2023-03-07T02:52:30;98031.97;;;3.71;63.17
73633;BME280;61927;50.080;14.418;2023-03-07T02:54:55;98042.19;;;3.75;63.15
73633;BME280;61927;50.080;14.418;2023-03-07T02:57:21;98029.16;;;3.74;63.01
73633;BME280;61927;50.080;14.418;2023-03-07T02:59:46;98035.25;;;3.74;62.91
73633;BME280;61927;50.080;14.418;2023-03-07T03:02:12;98032.38;;;3.79;62.82
73633;BME280;61927;50.080;14.418;2023-03-07T03:04:37;98026.38;;;3.77;63.17
73633;BME280;61927;50.080;14.418;2023-03-07T03:07:03;98026.94;;;3.82;62.75
73633;BME280;61927;50.080;14.418;2023-03-07T03:09:29;98018.22;;;3.81;62.42
73633;BME280;61927;50.080;14.418;2023-03-07T03:11:56;98016.44;;;3.82;62.54
73633;BME280;61927;50.080;14.418;2023-03-07T03:14:21;98018.31;;;3.80;62.39
73633;BME280;61927;50.080;14.418;2023-03-07T03:16:47;98017.28;;;3.82;62.50
73633;BME280;61927;50.080;14.418;2023-03-07T03:19:14;98013.91;;;3.80;62.29
73633;BME280;61927;50.080;14.418;2023-03-07T03:21:39;98015.50;;;3.83;61.88
73633;BME280;61927;50.080;14.418;2023-03-07T03:24:07;98013.72;;;3.83;62.25
73633;BME280;61927;50.080;14.418;2023-03-07T03:26:36;98014.66;;;3.82;61.93
73633;BME280;61927;50.080;14.418;2023-03-07T03:29:02;98006.97;;;3.79;62.08
73633;BME280;61927;50.080;14.418;2023-03-07T03:31:30;98009.69;;;3.78;62.15
73633;BME280;61927;50.080;14.418;2023-03-07T03:33:57;97999.88;;;3.81;62.14
73633;BME280;61927;50.080;14.418;2023-03-07T03:36:23;98002.66;;;3.78;62.00
73633;BME280;61927;50.080;14.418;2023-03-07T03:38:54;97997.50;;;3.77;62.39
73633;BME280;61927;50.080;14.418;2023-03-07T03:41:20;98002.84;;;3.75;61.75
73633;BME280;61927;50.080;14.418;2023-03-07T03:43:46;97998.16;;;3.80;62.38
73633;BME280;61927;50.080;14.418;2023-03-07T03:46:12;98000.13;;;3.77;62.14
73633;BME280;61927;50.080;14.418;2023-03-07T03:48:38;97997.41;;;3.78;61.75
73633;BME280;61927;50.080;14.418;2023-03-07T03:51:07;97983.44;;;3.78;61.98
73633;BME280;61927;50.080;14.418;2023-03-07T03:53:35;97986.91;;;3.78;61.18
73633;BME280;61927;50.080;14.418;2023-03-07T03:56:03;97991.50;;;3.75;61.73
73633;BME280;61927;50.080;14.418;2023-03-07T03:58:30;97986.06;;;3.78;61.53
73633;BME280;61927;50.080;14.418;2023-03-07T04:00:56;97987.84;;;3.77;61.27
73633;BME280;61927;50.080;14.418;2023-03-07T04:03:21;97988.03;;;3.74;61.38
73633;BME280;61927;50.080;14.418;2023-03-07T04:05:47;97977.72;;;3.71;61.60
73633;BME280;61927;50.080;14.418;2023-03-07T04:08:13;97984.66;;;3.72;61.45
73633;BME280;61927;50.080;14.418;2023-03-07T04:10:39;97980.16;;;3.74;61.37
73633;BME280;61927;50.080;14.418;2023-03-07T04:13:04;97985.81;;;3.82;60.95
73633;BME280;61927;50.080;14.418;2023-03-07T04:15:30;97985.72;;;3.84;61.07
73633;BME280;61927;50.080;14.418;2023-03-07T04:17:55;97979.53;;;3.85;60.29
73633;BME280;61927;50.080;14.418;2023-03-07T04:20:21;97977.28;;;3.79;60.75
73633;BME280;61927;50.080;14.418;2023-03-07T04:22:47;97976.50;;;3.77;61.16
73633;BME280;61927;50.080;14.418;2023-03-07T04:25:13;97972.88;;;3.79;60.86
73633;BME280;61927;50.080;14.418;2023-03-07T04:27:38;97973.88;;;3.77;60.71
73633;BME280;61927;50.080;14.418;2023-03-07T04:30:04;97964.34;;;3.76;61.33
73633;BME280;61927;50.080;14.418;2023-03-07T04:32:30;97964.91;;;3.81;60.62
73633;BME280;61927;50.080;14.418;2023-03-07T04:34:56;97964.47;;;3.88;60.18
73633;BME280;61927;50.080;14.418;2023-03-07T04:37:21;97961.75;;;3.90;60.39
73633;BME280;61927;50.080;14.418;2023-03-07T04:39:47;97962.00;;;3.85;59.97
73633;BME280;61927;50.080;14.418;2023-03-07T04:42:12;97955.84;;;3.86;60.20
73633;BME280;61927;50.080;14.418;2023-03-07T04:44:38;97958.53;;;3.85;59.77
73633;BME280;61927;50.080;14.418;2023-03-07T04:47:03;97946.94;;;3.89;60.03
73633;BME280;61927;50.080;14.418;2023-03-07T04:49:29;97948.81;;;3.87;59.45
73633;BME280;61927;50.080;14.418;2023-03-07T04:51:55;97942.91;;;3.83;59.45
73633;BME280;61927;50.080;14.418;2023-03-07T04:54:20;97937.47;;;3.86;59.72
73633;BME280;61927;50.080;14.418;2023-03-07T04:56:46;97938.22;;;3.88;59.69
73633;BME280;61927;50.080;14.418;2023-03-07T04:59:11;97939.91;;;3.89;59.85
73633;BME280;61927;50.080;14.418;2023-03-07T05:01:37;97938.41;;;3.85;59.63
73633;BME280;61927;50.080;14.418;2023-03-07T05:04:02;97934.94;;;3.85;59.72
73633;BME280;61927;50.080;14.418;2023-03-07T05:06:28;97927.81;;;3.87;59.38
73633;BME280;61927;50.080;14.418;2023-03-07T05:08:54;97924.72;;;3.80;59.90
73633;BME280;61927;50.080;14.418;2023-03-07T05:11:19;97907.94;;;3.83;59.55
73633;BME280;61927;50.080;14.418;2023-03-07T05:13:45;97913.47;;;3.78;59.84
73633;BME280;61927;50.080;14.418;2023-03-07T05:16:10;97905.50;;;3.80;59.02
73633;BME280;61927;50.080;14.418;2023-03-07T05:18:36;97909.81;;;3.81;59.11
73633;BME280;61927;50.080;14.418;2023-03-07T05:21:02;97896.78;;;3.79;58.95
73633;BME280;61927;50.080;14.418;2023-03-07T05:23:28;97904.94;;;3.75;59.07
73633;BME280;61927;50.080;14.418;2023-03-07T05:25:54;97907.63;;;3.73;59.50
73633;BME280;61927;50.080;14.418;2023-03-07T05:28:19;97906.63;;;3.76;59.74
73633;BME280;61927;50.080;14.418;2023-03-07T05:30:46;97899.41;;;3.79;59.53
73633;BME280;61927;50.080;14.418;2023-03-07T05:33:12;97901.00;;;3.82;59.12
73633;BME280;61927;50.080;14.418;2023-03-07T05:35:38;97895.84;;;3.80;59.01
73633;BME280;61927;50.080;14.418;2023-03-07T05:38:04;97895.84;;;3.80;59.12
73633;BME280;61927;50.080;14.418;2023-03-07T05:40:29;97896.03;;;3.77;59.31
73633;BME280;61927;50.080;14.418;2023-03-07T05:42:55;97901.38;;;3.76;59.22
73633;BME280;61927;50.080;14.418;2023-03-07T05:45:20;97899.88;;;3.72;59.62
73633;BME280;61927;50.080;14.418;2023-03-07T05:47:46;97905.19;;;3.70;59.51
73633;BME280;61927;50.080;14.418;2023-03-07T05:50:12;97894.63;;;3.72;59.30
73633;BME280;61927;50.080;14.418;2023-03-07T05:52:38;97895.63;;;3.69;59.33
73633;BME280;61927;50.080;14.418;2023-03-07T05:55:05;97898.44;;;3.66;59.65
73633;BME280;61927;50.080;14.418;2023-03-07T05:57:31;97898.53;;;3.65;59.33
73633;BME280;61927;50.080;14.418;2023-03-07T05:59:57;97897.69;;;3.64;59.55
73633;BME280;61927;50.080;14.418;2023-03-07T06:02:22;97899.56;;;3.62;59.33
73633;BME280;61927;50.080;14.418;2023-03-07T06:04:48;97893.66;;;3.59;59.54
73633;BME280;61927;50.080;14.418;2023-03-07T06:07:14;97894.50;;;3.59;59.90
73633;BME280;61927;50.080;14.418;2023-03-07T06:09:39;97898.81;;;3.60;59.24
73633;BME280;61927;50.080;14.418;2023-03-07T06:12:05;97896.19;;;3.60;59.66
73633;BME280;61927;50.080;14.418;2023-03-07T06:14:32;97896.19;;;3.60;60.23
73633;BME280;61927;50.080;14.418;2023-03-07T06:16:57;97903.13;;;3.61;59.19
73633;BME280;61927;50.080;14.418;2023-03-07T06:19:23;97896.00;;;3.63;59.65
73633;BME280;61927;50.080;14.418;2023-03-07T06:21:49;97898.63;;;3.63;59.19
73633;BME280;61927;50.080;14.418;2023-03-07T06:24:14;97897.59;;;3.66;58.94
73633;BME280;61927;50.080;14.418;2023-03-07T06:26:40;97883.47;;;3.68;59.34
73633;BME280;61927;50.080;14.418;2023-03-07T06:29:05;97892.16;;;3.69;59.33
73633;BME280;61927;50.080;14.418;2023-03-07T06:31:31;97889.19;;;3.75;59.14
73633;BME280;61927;50.080;14.418;2023-03-07T06:33:56;97887.78;;;3.83;59.00
73633;BME280;61927;50.080;14.418;2023-03-07T06:36:22;97891.00;;;3.88;58.52
73633;BME280;61927;50.080;14.418;2023-03-07T06:38:48;97889.22;;;3.89;58.71
73633;BME280;61927;50.080;14.418;2023-03-07T06:41:13;97888.00;;;3.95;58.66
73633;BME280;61927;50.080;14.418;2023-03-07T06:43:39;97895.41;;;4.02;58.25
73633;BME280;61927;50.080;14.418;2023-03-07T06:46:05;97889.03;;;4.06;58.21
73633;BME280;61927;50.080;14.418;2023-03-07T06:48:31;97892.41;;;4.08;57.33
73633;BME280;61927;50.080;14.418;2023-03-07T06:51:04;97897.75;;;4.07;58.03
73633;BME280;61927;50.080;14.418;2023-03-07T06:53:30;97902.91;;;4.08;57.77
73633;BME280;61927;50.080;14.418;2023-03-07T06:55:56;97902.06;;;4.08;57.75
73633;BME280;61927;50.080;14.418;2023-03-07T06:58:21;97895.59;;;4.13;57.59
73633;BME280;61927;50.080;14.418;2023-03-07T07:00:47;97898.22;;;4.13;56.87
73633;BME280;61927;50.080;14.418;2023-03-07T07:03:13;97906.84;;;4.15;57.15
73633;BME280;61927;50.080;14.418;2023-03-07T07:05:39;97904.06;;;4.18;57.10
73633;BME280;61927;50.080;14.418;2023-03-07T07:08:05;97906.31;;;4.25;57.38
73633;BME280;61927;50.080;14.418;2023-03-07T07:10:31;97902.38;;;4.32;56.92
73633;BME280;61927;50.080;14.418;2023-03-07T07:12:56;97897.69;;;4.37;56.58
73633;BME280;61927;50.080;14.418;2023-03-07T07:15:23;97904.53;;;4.39;56.34
73633;BME280;61927;50.080;14.418;2023-03-07T07:17:52;97898.25;;;4.42;56.50
73633;BME280;61927;50.080;14.418;2023-03-07T07:20:18;97902.16;;;4.49;55.82
73633;BME280;61927;50.080;14.418;2023-03-07T07:22:44;97904.50;;;4.53;55.68
73633;BME280;61927;50.080;14.418;2023-03-07T07:25:10;97899.91;;;4.57;55.42
73633;BME280;61927;50.080;14.418;2023-03-07T07:27:36;97896.16;;;4.61;56.22
73633;BME280;61927;50.080;14.418;2023-03-07T07:30:03;97898.59;;;4.64;55.03
73633;BME280;61927;50.080;14.418;2023-03-07T07:32:28;97888.81;;;4.66;56.03
73633;BME280;61927;50.080;14.418;2023-03-07T07:34:54;97902.72;;;4.68;55.06
73633;BME280;61927;50.080;14.418;2023-03-07T07:37:20;97894.63;;;4.71;54.81
73633;BME280;61927;50.080;14.418;2023-03-07T07:39:45;97894.81;;;4.68;54.75
73633;BME280;61927;50.080;14.418;2023-03-07T07:42:13;97889.66;;;4.67;55.06
73633;BME280;61927;50.080;14.418;2023-03-07T07:44:38;97888.44;;;4.72;54.70
73633;BME280;61927;50.080;14.418;2023-03-07T07:47:04;97894.91;;;4.81;54.77
73633;BME280;61927;50.080;14.418;2023-03-07T07:49:30;97889.25;;;4.87;54.74
73633;BME280;61927;50.080;14.418;2023-03-07T07:51:55;97893.28;;;4.93;54.51
73633;BME280;61927;50.080;14.418;2023-03-07T07:54:21;97908.56;;;5.00;54.22
73633;BME280;61927;50.080;14.418;2023-03-07T07:56:46;97892.78;;;5.00;54.12
73633;BME280;61927;50.080;14.418;2023-03-07T07:59:12;97884.72;;;5.03;54.35
73633;BME280;61927;50.080;14.418;2023-03-07T08:01:38;97881.28;;;5.15;53.95
73633;BME280;61927;50.080;14.418;2023-03-07T08:04:04;97884.56;;;5.19;53.60
73633;BME280;61927;50.080;14.418;2023-03-07T08:06:29;97882.03;;;5.17;54.00
73633;BME280;61927;50.080;14.418;2023-03-07T08:08:55;97883.81;;;5.17;53.83
73633;BME280;61927;50.080;14.418;2023-03-07T08:11:22;97874.78;;;5.21;53.44
73633;BME280;61927;50.080;14.418;2023-03-07T08:13:48;97874.38;;;5.27;53.86
73633;BME280;61927;50.080;14.418;2023-03-07T08:16:18;97881.97;;;5.32;54.09
73633;BME280;61927;50.080;14.418;2023-03-07T08:18:50;97881.97;;;5.32;53.77
73633;BME280;61927;50.080;14.418;2023-03-07T08:21:16;97887.22;;;5.32;53.94
73633;BME280;61927;50.080;14.418;2023-03-07T08:23:42;97879.63;;;5.27;54.00
73633;BME280;61927;50.080;14.418;2023-03-07T08:26:08;97879.78;;;5.38;53.89
73633;BME280;61927;50.080;14.418;2023-03-07T08:28:36;97883.59;;;5.47;53.90
73633;BME280;61927;50.080;14.418;2023-03-07T08:31:10;97878.97;;;5.50;53.94
73633;BME280;61927;50.080;14.418;2023-03-07T08:33:36;97882.34;;;5.53;54.30
73633;BME280;61927;50.080;14.418;2023-03-07T08:36:03;97876.78;;;5.57;53.49
73633;BME280;61927;50.080;14.418;2023-03-07T08:38:29;97870.38;;;5.61;53.42
73633;BME280;61927;50.080;14.418;2023-03-07T08:40:59;97874.03;;;5.59;53.10
73633;BME280;61927;50.080;14.418;2023-03-07T08:43:27;97874.03;;;5.59;53.72
73633;BME280;61927;50.080;14.418;2023-03-07T08:45:52;97867.31;;;5.67;53.26
73633;BME280;61927;50.080;14.418;2023-03-07T08:48:18;97871.22;;;5.74;53.10
73633;BME280;61927;50.080;14.418;2023-03-07T08:50:45;97875.66;;;5.74;53.66
73633;BME280;61927;50.080;14.418;2023-03-07T08:53:13;97866.69;;;5.76;53.80
73633;BME280;61927;50.080;14.418;2023-03-07T08:55:38;97871.22;;;5.74;53.19
73633;BME280;61927;50.080;14.418;2023-03-07T08:58:04;97877.22;;;5.76;54.05
73633;BME280;61927;50.080;14.418;2023-03-07T09:00:30;97879.44;;;5.82;54.05
73633;BME280;61927;50.080;14.418;2023-03-07T09:02:56;97887.44;;;5.81;53.47
73633;BME280;61927;50.080;14.418;2023-03-07T09:05:27;97881.44;;;5.79;53.80
73633;BME280;61927;50.080;14.418;2023-03-07T09:07:53;97878.81;;;5.79;53.80
73633;BME280;61927;50.080;14.418;2023-03-07T09:10:19;97877.97;;;5.78;54.16
73633;BME280;61927;50.080;14.418;2023-03-07T09:12:46;97886.81;;;5.77;53.43
73633;BME280;61927;50.080;14.418;2023-03-07T09:15:11;97874.47;;;5.65;54.19
73633;BME280;61927;50.080;14.418;2023-03-07T09:17:38;97874.16;;;5.70;53.81
73633;BME280;61927;50.080;14.418;2023-03-07T09:20:04;97865.13;;;5.74;54.39
73633;BME280;61927;50.080;14.418;2023-03-07T09:22:31;97871.53;;;5.82;53.93
73633;BME280;61927;50.080;14.418;2023-03-07T09:24:56;97865.13;;;5.87;54.09
73633;BME280;61927;50.080;14.418;2023-03-07T09:27:24;97865.69;;;5.92;53.99
73633;BME280;61927;50.080;14.418;2023-03-07T09:29:49;97861.78;;;5.97;54.21
73633;BME280;61927;50.080;14.418;2023-03-07T09:32:15;97855.38;;;6.01;53.55
73633;BME280;61927;50.080;14.418;2023-03-07T09:34:41;97850.31;;;5.98;54.01
73633;BME280;61927;50.080;14.418;2023-03-07T09:37:06;97842.84;;;6.05;54.19
73633;BME280;61927;50.080;14.418;2023-03-07T09:39:32;97855.38;;;6.01;53.63
73633;BME280;61927;50.080;14.418;2023-03-07T09:42:02;97853.59;;;6.02;53.76
73633;BME280;61927;50.080;14.418;2023-03-07T09:50:12;97839.97;;;6.21;52.76
73633;BME280;61927;50.080;14.418;2023-03-07T09:52:41;97846.53;;;6.15;53.16
73633;BME280;61927;50.080;14.418;2023-03-07T09:55:18;97845.16;;;6.22;53.33
73633;BME280;61927;50.080;14.418;2023-03-07T09:57:54;97843.03;;;6.27;52.84
73633;BME280;61927;50.080;14.418;2023-03-07T10:02:48;97840.59;;;6.37;52.81
73633;BME280;61927;50.080;14.418;2023-03-07T10:05:35;97835.00;;;6.41;53.19
73633;BME280;61927;50.080;14.418;2023-03-07T10:08:02;97833.84;;;6.45;52.71
73633;BME280;61927;50.080;14.418;2023-03-07T10:10:39;97831.50;;;6.54;52.53
73633;BME280;61927;50.080;14.418;2023-03-07T10:13:15;97821.13;;;6.63;52.34
73633;BME280;61927;50.080;14.418;2023-03-07T10:15:44;97820.59;;;6.71;51.73
73633;BME280;61927;50.080;14.418;2023-03-07T10:18:56;97820.47;;;6.72;52.10
73633;BME280;61927;50.080;14.418;2023-03-07T10:23:59;97821.66;;;6.68;51.96
73633;BME280;61927;50.080;14.418;2023-03-07T10:26:34;97815.31;;;6.71;52.01
73633;BME280;61927;50.080;14.418;2023-03-07T10:29:13;97822.38;;;6.70;51.39
73633;BME280;61927;50.080;14.418;2023-03-07T10:31:43;97814.13;;;6.75;51.96
73633;BME280;61927;50.080;14.418;2023-03-07T10:34:15;97812.97;;;6.79;51.56
73633;BME280;61927;50.080;14.418;2023-03-07T10:36:43;97807.75;;;6.90;51.39
73633;BME280;61927;50.080;14.418;2023-03-07T10:41:46;97811.22;;;7.15;51.06
73633;BME280;61927;50.080;14.418;2023-03-07T10:44:16;97794.09;;;7.20;50.56
73633;BME280;61927;50.080;14.418;2023-03-07T10:46:43;97794.50;;;7.27;50.67
73633;BME280;61927;50.080;14.418;2023-03-07T10:49:17;97793.53;;;7.28;50.30
73633;BME280;61927;50.080;14.418;2023-03-07T10:51:54;97795.31;;;7.27;50.43
73633;BME280;61927;50.080;14.418;2023-03-07T10:54:28;97794.03;;;7.33;50.08
73633;BME280;61927;50.080;14.418;2023-03-07T10:57:10;97791.78;;;7.39;50.41
73633;BME280;61927;50.080;14.418;2023-03-07T10:59:41;97783.00;;;7.39;49.62
73633;BME280;61927;50.080;14.418;2023-03-07T11:02:33;97777.03;;;7.48;49.88
73633;BME280;61927;50.080;14.418;2023-03-07T11:05:00;97775.88;;;7.63;49.68
73633;BME280;61927;50.080;14.418;2023-03-07T11:07:35;97763.41;;;7.65;49.65
73633;BME280;61927;50.080;14.418;2023-03-07T11:10:38;97761.97;;;7.72;50.00
73633;BME280;61927;50.080;14.418;2023-03-07T11:13:18;97770.00;;;7.71;48.99
73633;BME280;61927;50.080;14.418;2023-03-07T11:15:44;97759.06;;;7.64;49.27
73633;BME280;61927;50.080;14.418;2023-03-07T11:18:27;97759.91;;;7.65;49.11
73633;BME280;61927;50.080;14.418;2023-03-07T11:20:55;97753.78;;;7.64;49.20
73633;BME280;61927;50.080;14.418;2023-03-07T11:23:29;97750.19;;;7.65;49.15
73633;BME280;61927;50.080;14.418;2023-03-07T11:26:13;97753.44;;;7.80;48.64
73633;BME280;61927;50.080;14.418;2023-03-07T11:28:39;97750.34;;;7.97;48.64
73633;BME280;61927;50.080;14.418;2023-03-07T11:33:55;97749.63;;;8.06;48.13
73633;BME280;61927;50.080;14.418;2023-03-07T11:36:30;97739.16;;;8.05;48.04
73633;BME280;61927;50.080;14.418;2023-03-07T11:41:30;97741.44;;;8.09;47.06
73633;BME280;61927;50.080;14.418;2023-03-07T12:14:53;97677.06;;;8.22;46.67
73633;BME280;61927;50.080;14.418;2023-03-07T12:17:46;97691.25;;;8.21;47.45
73633;BME280;61927;50.080;14.418;2023-03-07T12:20:38;97674.53;;;8.20;47.08
73633;BME280;61927;50.080;14.418;2023-03-07T12:23:17;97670.72;;;8.13;46.93
73633;BME280;61927;50.080;14.418;2023-03-07T12:25:54;97672.88;;;8.08;47.05
73633;BME280;61927;50.080;14.418;2023-03-07T12:36:08;97654.34;;;8.41;46.55
73633;BME280;61927;50.080;14.418;2023-03-07T12:38:43;97657.69;;;8.44;46.66
73633;BME280;61927;50.080;14.418;2023-03-07T12:41:33;97662.59;;;8.48;46.66
73633;BME280;61927;50.080;14.418;2023-03-07T12:44:05;97654.56;;;8.50;46.04
73633;BME280;61927;50.080;14.418;2023-03-07T12:46:45;97650.91;;;8.62;46.51
73633;BME280;61927;50.080;14.418;2023-03-07T12:49:38;97664.00;;;8.63;45.60
73633;BME280;61927;50.080;14.418;2023-03-07T12:52:14;97650.19;;;8.60;45.33
73633;BME280;61927;50.080;14.418;2023-03-07T12:54:44;97653.34;;;8.54;45.82
73633;BME280;61927;50.080;14.418;2023-03-07T12:57:18;97644.81;;;8.50;45.43
73633;BME280;61927;50.080;14.418;2023-03-07T12:59:46;97646.16;;;8.45;44.51
73633;BME280;61927;50.080;14.418;2023-03-07T13:02:26;97656.16;;;8.30;45.01
73633;BME280;61927;50.080;14.418;2023-03-07T13:04:53;97656.84;;;8.32;44.48
73633;BME280;61927;50.080;14.418;2023-03-07T13:07:27;97640.78;;;8.35;44.53
73633;BME280;61927;50.080;14.418;2023-03-07T13:09:55;97632.59;;;8.38;45.18
73633;BME280;61927;50.080;14.418;2023-03-07T13:12:31;97641.97;;;8.42;45.01
73633;BME280;61927;50.080;14.418;2023-03-07T13:15:43;97643.19;;;8.38;45.06
73633;BME280;61927;50.080;14.418;2023-03-07T13:17:57;97633.78;;;8.45;45.29
73633;BME280;61927;50.080;14.418;2023-03-07T13:27:56;97628.16;;;8.38;45.35
73633;BME280;61927;50.080;14.418;2023-03-07T13:30:30;97629.84;;;8.39;46.69
73633;BME280;61927;50.080;14.418;2023-03-07T13:35:58;97627.44;;;8.68;45.76
73633;BME280;61927;50.080;14.418;2023-03-07T13:38:40;97630.25;;;8.56;45.83
73633;BME280;61927;50.080;14.418;2023-03-07T13:41:11;97620.22;;;8.38;46.05
73633;BME280;61927;50.080;14.418;2023-03-07T13:46:28;97627.84;;;8.09;47.13
73633;BME280;61927;50.080;14.418;2023-03-07T13:51:20;97621.03;;;7.96;47.85
73633;BME280;61927;50.080;14.418;2023-03-07T13:53:52;97611.09;;;7.88;47.86
73633;BME280;61927;50.080;14.418;2023-03-07T13:56:23;97612.78;;;7.89;48.24
73633;BME280;61927;50.080;14.418;2023-03-07T13:59:17;97620.78;;;7.99;48.29
73633;BME280;61927;50.080;14.418;2023-03-07T14:01:48;97607.59;;;7.99;48.18
73633;BME280;61927;50.080;14.418;2023-03-07T14:06:55;97600.78;;;7.85;49.09
73633;BME280;61927;50.080;14.418;2023-03-07T14:09:43;97606.91;;;7.86;49.13
73633;BME280;61927;50.080;14.418;2023-03-07T14:26:34;97599.44;;;7.91;49.17
73633;BME280;61927;50.080;14.418;2023-03-07T14:29:13;97605.56;;;7.91;48.84
73633;BME280;61927;50.080;14.418;2023-03-07T14:31:42;97592.72;;;7.98;48.73
73633;BME280;61927;50.080;14.418;2023-03-07T14:36:42;97594.94;;;8.14;47.17
73633;BME280;61927;50.080;14.418;2023-03-07T14:39:12;97603.22;;;8.20;47.35
73633;BME280;61927;50.080;14.418;2023-03-07T14:41:54;97603.34;;;8.19;47.08
73633;BME280;61927;50.080;14.418;2023-03-07T14:47:45;97595.78;;;8.14;46.93
73633;BME280;61927;50.080;14.418;2023-03-07T14:50:19;97585.72;;;8.08;46.98